createdAt,value
2019-02-19T00:00:10.798Z,13.30
2019-02-19T00:01:10.802Z,12.60
2019-02-19T00:02:10.997Z,12.00
2019-02-19T00:03:10.776Z,13.10
2019-02-19T00:04:10.973Z,12.30
2019-02-19T00:06:10.964Z,11.40
2019-02-19T00:07:10.762Z,12.10
2019-02-19T00:08:10.752Z,12.50
2019-02-19T00:09:10.743Z,11.60
2019-02-19T00:10:10.751Z,11.30
2019-02-19T00:11:11.059Z,11.30
2019-02-19T00:12:10.754Z,11.50
2019-02-19T00:13:10.930Z,11.30
2019-02-19T00:14:10.741Z,11.00
2019-02-19T00:16:10.932Z,10.80
2019-02-19T00:17:10.717Z,10.60
2019-02-19T00:18:10.718Z,10.10
2019-02-19T00:19:10.721Z,10.20
2019-02-19T00:20:10.704Z,11.10
2019-02-19T00:21:10.708Z,11.10
2019-02-19T00:22:10.678Z,11.60
2019-02-19T00:23:10.679Z,10.50
2019-02-19T00:24:10.677Z,10.20
2019-02-19T00:25:10.661Z,10.30
2019-02-19T00:26:10.853Z,11.20
2019-02-19T00:27:10.652Z,12.50
2019-02-19T00:28:10.659Z,11.50
2019-02-19T00:29:10.639Z,10.70
2019-02-19T00:30:10.632Z,11.10
2019-02-19T00:31:20.086Z,10.20
2019-02-19T00:32:10.653Z,10.30
2019-02-19T00:33:10.638Z,11.00
2019-02-19T00:34:10.816Z,11.40
2019-02-19T00:35:10.636Z,10.50
2019-02-19T00:36:10.614Z,11.50
2019-02-19T00:37:10.815Z,9.80
2019-02-19T00:38:10.588Z,10.40
2019-02-19T00:39:10.608Z,11.70
2019-02-19T00:40:10.586Z,11.00
2019-02-19T00:41:10.787Z,10.50
2019-02-19T00:42:10.589Z,10.40
2019-02-19T00:43:10.581Z,11.10
2019-02-19T00:44:10.561Z,10.20
2019-02-19T00:45:16.508Z,10.90
2019-02-19T00:46:10.549Z,10.70
2019-02-19T00:47:10.551Z,11.20
2019-02-19T00:48:10.536Z,11.80
2019-02-19T00:49:10.737Z,11.60
2019-02-19T00:50:10.525Z,11.50
2019-02-19T00:51:10.529Z,12.30
2019-02-19T00:52:10.512Z,11.40
2019-02-19T00:53:10.517Z,11.60
2019-02-19T00:54:10.717Z,12.00
2019-02-19T00:55:10.520Z,12.60
2019-02-19T00:56:10.500Z,12.80
2019-02-19T00:57:10.493Z,15.70
2019-02-19T00:58:10.693Z,11.70
2019-02-19T00:59:10.479Z,11.00
2019-02-19T01:00:10.480Z,11.30
2019-02-19T01:01:10.476Z,11.10
2019-02-19T01:02:10.669Z,10.70
2019-02-19T01:03:10.663Z,11.30
2019-02-19T01:04:10.464Z,11.50
2019-02-19T01:05:10.462Z,10.60
2019-02-19T01:06:10.467Z,10.20
2019-02-19T01:07:10.440Z,11.40
2019-02-19T01:08:10.438Z,12.30
2019-02-19T01:09:10.430Z,11.30
2019-02-19T01:10:10.419Z,10.50
2019-02-19T01:11:10.427Z,10.80
2019-02-19T01:12:10.416Z,10.80
2019-02-19T01:13:10.647Z,12.10
2019-02-19T01:14:10.402Z,12.30
2019-02-19T01:15:10.425Z,11.60
2019-02-19T01:16:10.776Z,10.80
2019-02-19T01:17:10.402Z,11.80
2019-02-19T01:18:10.387Z,12.70
2019-02-19T01:19:10.378Z,12.10
2019-02-19T01:20:10.589Z,12.50
2019-02-19T01:21:10.387Z,12.10
2019-02-19T01:22:10.379Z,11.90
2019-02-19T01:23:10.351Z,12.70
2019-02-19T01:24:10.345Z,12.20
2019-02-19T01:25:10.361Z,12.80
2019-02-19T01:26:10.345Z,11.80
2019-02-19T01:27:10.340Z,11.10
2019-02-19T01:28:10.576Z,11.90
2019-02-19T01:29:10.524Z,11.20
2019-02-19T01:30:10.328Z,12.90
2019-02-19T01:32:10.305Z,13.00
2019-02-19T01:33:10.304Z,11.90
2019-02-19T01:34:10.317Z,13.10
2019-02-19T01:35:10.299Z,12.00
2019-02-19T01:36:10.290Z,11.60
2019-02-19T01:37:10.289Z,11.00
2019-02-19T01:38:10.290Z,12.70
2019-02-19T01:39:10.473Z,11.80
2019-02-19T01:40:10.288Z,14.90
2019-02-19T01:41:10.470Z,14.90
2019-02-19T01:42:10.454Z,15.40
2019-02-19T01:43:10.256Z,13.70
2019-02-19T01:44:10.472Z,13.50
2019-02-19T01:45:10.236Z,13.90
2019-02-19T01:46:10.439Z,14.50
2019-02-19T01:47:10.436Z,15.50
2019-02-19T01:48:10.225Z,14.00
2019-02-19T01:49:10.225Z,15.80
2019-02-19T01:50:10.226Z,15.00
2019-02-19T01:51:10.216Z,13.90
2019-02-19T01:52:10.200Z,13.40
2019-02-19T01:53:10.411Z,14.50
2019-02-19T01:54:10.204Z,13.70
2019-02-19T01:55:10.390Z,13.40
2019-02-19T01:56:10.196Z,14.20
2019-02-19T01:57:10.181Z,13.00
2019-02-19T01:58:10.180Z,12.50
2019-02-19T01:59:10.165Z,13.90
2019-02-19T02:00:10.180Z,12.90
2019-02-19T02:01:10.162Z,12.30
2019-02-19T02:02:10.150Z,13.10
2019-02-19T02:03:10.145Z,12.80
2019-02-19T02:04:10.136Z,11.80
2019-02-19T02:05:10.353Z,13.20
2019-02-19T02:06:10.135Z,12.50
2019-02-19T02:07:10.135Z,12.80
2019-02-19T02:08:10.134Z,12.50
2019-02-19T02:09:10.114Z,11.70
2019-02-19T02:10:10.113Z,13.60
2019-02-19T02:11:10.104Z,12.50
2019-02-19T02:12:10.101Z,11.70
2019-02-19T02:13:10.307Z,12.00
2019-02-19T02:14:10.314Z,12.20
2019-02-19T02:15:10.092Z,12.10
2019-02-19T02:16:10.105Z,12.50
2019-02-19T02:17:10.070Z,11.80
2019-02-19T02:18:10.084Z,12.50
2019-02-19T02:19:10.265Z,11.90
2019-02-19T02:20:10.059Z,11.50
2019-02-19T02:21:10.067Z,11.50
2019-02-19T02:22:10.254Z,11.20
2019-02-19T02:23:10.053Z,11.30
2019-02-19T02:24:10.065Z,12.30
2019-02-19T02:25:10.050Z,10.40
2019-02-19T02:26:10.228Z,10.20
2019-02-19T02:27:10.040Z,12.90
2019-02-19T02:28:10.045Z,11.80
2019-02-19T02:29:10.012Z,12.10
2019-02-19T02:30:10.228Z,12.50
2019-02-19T02:31:10.005Z,12.70
2019-02-19T02:32:09.994Z,13.10
2019-02-19T02:33:10.198Z,12.20
2019-02-19T02:34:10.201Z,12.30
2019-02-19T02:35:11.328Z,12.60
2019-02-19T02:36:09.990Z,12.30
2019-02-19T02:37:09.973Z,11.70
2019-02-19T02:38:09.992Z,12.20
2019-02-19T02:39:09.971Z,11.80
2019-02-19T02:41:09.957Z,11.70
2019-02-19T02:42:09.952Z,11.90
2019-02-19T02:43:09.939Z,12.10
2019-02-19T02:44:10.153Z,13.60
2019-02-19T02:45:10.155Z,15.80
2019-02-19T02:46:09.931Z,14.70
2019-02-19T02:47:09.938Z,15.40
2019-02-19T02:48:09.919Z,17.20
2019-02-19T02:49:10.166Z,18.20
2019-02-19T02:50:09.932Z,18.80
2019-02-19T02:51:10.118Z,18.20
2019-02-19T02:52:09.938Z,22.90
2019-02-19T02:53:09.902Z,24.20
2019-02-19T02:54:09.903Z,27.20
2019-02-19T02:55:09.894Z,22.90
2019-02-19T02:56:09.921Z,25.00
2019-02-19T02:57:10.077Z,28.20
2019-02-19T02:58:10.080Z,22.70
2019-02-19T02:59:09.885Z,25.60
2019-02-19T03:00:09.860Z,29.10
2019-02-19T03:01:09.869Z,25.00
2019-02-19T03:03:09.848Z,27.80
2019-02-19T03:04:09.861Z,25.60
2019-02-19T03:05:10.364Z,24.40
2019-02-19T03:06:09.856Z,24.10
2019-02-19T03:07:09.868Z,26.30
2019-02-19T03:08:09.839Z,22.40
2019-02-19T03:09:10.050Z,24.40
2019-02-19T03:10:09.835Z,25.20
2019-02-19T03:11:10.022Z,23.10
2019-02-19T03:12:09.823Z,20.40
2019-02-19T03:13:09.809Z,21.50
2019-02-19T03:14:09.803Z,23.60
2019-02-19T03:15:09.808Z,23.70
2019-02-19T03:16:09.789Z,21.20
2019-02-19T03:17:09.790Z,23.90
2019-02-19T03:18:09.780Z,20.30
2019-02-19T03:19:09.822Z,20.70
2019-02-19T03:20:09.776Z,22.00
2019-02-19T03:21:09.975Z,21.70
2019-02-19T03:22:09.968Z,21.60
2019-02-19T03:23:09.761Z,21.20
2019-02-19T03:24:09.759Z,27.10
2019-02-19T03:25:09.768Z,24.70
2019-02-19T03:26:09.753Z,22.20
2019-02-19T03:27:09.743Z,23.30
2019-02-19T03:28:09.742Z,25.40
2019-02-19T03:29:09.761Z,22.00
2019-02-19T03:30:09.770Z,23.40
2019-02-19T03:31:09.957Z,23.90
2019-02-19T03:32:09.939Z,21.00
2019-02-19T03:33:09.720Z,23.50
2019-02-19T03:34:09.787Z,25.90
2019-02-19T03:35:09.731Z,23.10
2019-02-19T03:36:09.720Z,22.70
2019-02-19T03:37:09.768Z,22.90
2019-02-19T03:38:09.730Z,23.00
2019-02-19T03:39:09.730Z,23.50
2019-02-19T03:40:09.721Z,24.70
2019-02-19T03:41:09.696Z,22.40
2019-02-19T03:42:09.685Z,25.40
2019-02-19T03:43:09.882Z,24.10
2019-02-19T03:44:09.900Z,23.20
2019-02-19T03:45:09.926Z,23.70
2019-02-19T03:46:12.468Z,27.10
2019-02-19T03:47:09.896Z,23.00
2019-02-19T03:48:09.665Z,24.40
2019-02-19T03:49:09.908Z,28.80
2019-02-19T03:50:09.667Z,24.70
2019-02-19T03:51:09.857Z,25.40
2019-02-19T03:52:09.650Z,24.90
2019-02-19T03:53:09.674Z,25.10
2019-02-19T03:54:09.649Z,25.00
2019-02-19T03:55:09.661Z,26.80
2019-02-19T03:56:09.633Z,26.10
2019-02-19T03:57:09.855Z,24.70
2019-02-19T03:58:09.825Z,26.80
2019-02-19T03:59:09.623Z,27.90
2019-02-19T04:00:09.614Z,27.60
2019-02-19T04:01:09.637Z,25.20
2019-02-19T04:02:09.615Z,28.40
2019-02-19T04:03:09.810Z,23.20
2019-02-19T04:04:09.810Z,26.00
2019-02-19T04:05:09.594Z,25.50
2019-02-19T04:06:09.657Z,25.00
2019-02-19T04:07:09.587Z,26.50
2019-02-19T04:08:09.584Z,26.60
2019-02-19T04:09:09.575Z,27.00
2019-02-19T04:10:09.588Z,26.10
2019-02-19T04:11:09.573Z,27.40
2019-02-19T04:12:09.584Z,27.00
2019-02-19T04:13:09.568Z,25.90
2019-02-19T04:14:09.564Z,25.00
2019-02-19T04:15:09.573Z,25.40
2019-02-19T04:16:09.566Z,26.90
2019-02-19T04:17:09.556Z,27.00
2019-02-19T04:18:09.947Z,26.70
2019-02-19T04:19:09.742Z,27.30
2019-02-19T04:20:09.539Z,29.50
2019-02-19T04:21:09.550Z,26.10
2019-02-19T04:22:09.549Z,27.00
2019-02-19T04:23:09.750Z,27.90
2019-02-19T04:24:09.535Z,25.10
2019-02-19T04:25:09.736Z,27.20
2019-02-19T04:26:09.510Z,29.60
2019-02-19T04:28:09.710Z,30.80
2019-02-19T04:29:09.517Z,28.20
2019-02-19T04:30:09.531Z,29.10
2019-02-19T04:31:09.700Z,29.80
2019-02-19T04:32:09.688Z,29.60
2019-02-19T04:33:09.488Z,28.20
2019-02-19T04:34:09.489Z,32.90
2019-02-19T04:35:09.508Z,30.50
2019-02-19T04:36:09.487Z,28.20
2019-02-19T04:37:09.489Z,29.30
2019-02-19T04:38:09.503Z,28.50
2019-02-19T04:39:09.494Z,29.00
2019-02-19T04:40:09.475Z,29.70
2019-02-19T04:41:09.658Z,28.00
2019-02-19T04:42:09.449Z,31.90
2019-02-19T04:43:09.462Z,31.50
2019-02-19T04:44:09.667Z,26.70
2019-02-19T04:45:09.882Z,30.00
2019-02-19T04:46:09.665Z,29.60
2019-02-19T04:47:09.459Z,26.40
2019-02-19T04:48:09.460Z,31.30
2019-02-19T04:49:09.462Z,32.20
2019-02-19T04:50:09.444Z,30.10
2019-02-19T04:51:09.416Z,28.90
2019-02-19T04:52:09.632Z,30.30
2019-02-19T04:53:09.419Z,30.00
2019-02-19T04:54:09.422Z,30.80
2019-02-19T04:55:09.405Z,32.40
2019-02-19T04:56:09.597Z,29.80
2019-02-19T04:57:09.398Z,33.70
2019-02-19T04:58:09.390Z,31.10
2019-02-19T04:59:09.808Z,33.80
2019-02-19T05:00:09.385Z,30.40
2019-02-19T05:01:09.382Z,35.30
2019-02-19T05:02:09.383Z,29.20
2019-02-19T05:03:09.374Z,29.40
2019-02-19T05:04:09.381Z,28.40
2019-02-19T05:05:09.577Z,32.40
2019-02-19T05:06:09.368Z,31.60
2019-02-19T05:07:09.358Z,35.40
2019-02-19T05:08:09.359Z,37.50
2019-02-19T05:09:09.357Z,36.10
2019-02-19T05:10:09.374Z,40.50
2019-02-19T05:11:09.350Z,35.70
2019-02-19T05:12:09.344Z,36.50
2019-02-19T05:13:09.350Z,36.10
2019-02-19T05:14:09.369Z,34.90
2019-02-19T05:16:09.335Z,35.70
2019-02-19T05:17:09.341Z,37.00
2019-02-19T05:18:09.380Z,35.10
2019-02-19T05:19:09.543Z,33.70
2019-02-19T05:20:09.316Z,34.20
2019-02-19T05:21:09.319Z,32.80
2019-02-19T05:22:09.515Z,33.00
2019-02-19T05:23:09.314Z,35.00
2019-02-19T05:24:09.497Z,34.30
2019-02-19T05:25:09.293Z,34.60
2019-02-19T05:26:09.290Z,32.80
2019-02-19T05:27:09.297Z,35.80
2019-02-19T05:28:09.297Z,33.80
2019-02-19T05:29:09.283Z,35.50
2019-02-19T05:30:09.276Z,36.30
2019-02-19T05:32:09.271Z,36.00
2019-02-19T05:33:09.288Z,36.00
2019-02-19T05:34:09.256Z,38.50
2019-02-19T05:35:09.263Z,41.20
2019-02-19T05:36:09.250Z,38.70
2019-02-19T05:37:09.251Z,39.20
2019-02-19T05:38:09.243Z,38.90
2019-02-19T05:39:09.244Z,39.40
2019-02-19T05:40:09.267Z,36.40
2019-02-19T05:41:09.234Z,36.60
2019-02-19T05:42:09.243Z,37.90
2019-02-19T05:43:09.440Z,41.30
2019-02-19T05:44:09.437Z,34.80
2019-02-19T05:45:09.239Z,40.70
2019-02-19T05:46:09.244Z,40.10
2019-02-19T05:47:09.431Z,39.40
2019-02-19T05:48:09.236Z,41.80
2019-02-19T05:49:09.406Z,38.70
2019-02-19T05:50:09.201Z,42.60
2019-02-19T05:51:09.396Z,45.10
2019-02-19T05:52:09.196Z,43.80
2019-02-19T05:53:09.201Z,36.50
2019-02-19T05:54:09.186Z,39.20
2019-02-19T05:55:09.189Z,38.00
2019-02-19T05:56:09.182Z,37.50
2019-02-19T05:57:09.187Z,39.40
2019-02-19T05:58:09.182Z,36.60
2019-02-19T05:59:09.165Z,39.90
2019-02-19T06:00:09.172Z,45.10
2019-02-19T06:01:09.172Z,43.20
2019-02-19T06:02:09.175Z,42.30
2019-02-19T06:03:09.374Z,39.40
2019-02-19T06:04:09.155Z,44.50
2019-02-19T06:05:09.167Z,40.60
2019-02-19T06:06:09.178Z,40.20
2019-02-19T06:07:09.159Z,41.00
2019-02-19T06:08:09.162Z,39.60
2019-02-19T06:09:09.477Z,42.10
2019-02-19T06:10:09.144Z,45.00
2019-02-19T06:11:09.153Z,43.90
2019-02-19T06:12:09.119Z,44.50
2019-02-19T06:13:09.111Z,44.20
2019-02-19T06:14:09.109Z,44.00
2019-02-19T06:15:09.113Z,45.60
2019-02-19T06:16:09.133Z,47.80
2019-02-19T06:17:09.313Z,48.00
2019-02-19T06:18:09.094Z,46.20
2019-02-19T06:19:09.314Z,44.10
2019-02-19T06:20:09.087Z,44.50
2019-02-19T06:21:09.091Z,45.70
2019-02-19T06:22:09.078Z,44.50
2019-02-19T06:23:09.294Z,46.10
2019-02-19T06:24:09.297Z,43.10
2019-02-19T06:25:09.126Z,43.10
2019-02-19T06:26:09.066Z,44.40
2019-02-19T06:27:09.061Z,43.30
2019-02-19T06:28:09.068Z,42.90
2019-02-19T06:29:09.072Z,43.90
2019-02-19T06:30:09.047Z,46.20
2019-02-19T06:31:09.068Z,43.80
2019-02-19T06:32:09.043Z,40.00
2019-02-19T06:33:09.044Z,41.30
2019-02-19T06:34:09.041Z,44.90
2019-02-19T06:35:09.236Z,42.60
2019-02-19T06:36:09.239Z,41.90
2019-02-19T06:37:09.033Z,45.10
2019-02-19T06:38:09.030Z,44.40
2019-02-19T06:39:09.020Z,43.40
2019-02-19T06:40:09.024Z,42.10
2019-02-19T06:41:09.226Z,40.50
2019-02-19T06:42:09.020Z,42.10
2019-02-19T06:43:09.219Z,41.40
2019-02-19T06:44:08.999Z,42.40
2019-02-19T06:45:09.014Z,45.10
2019-02-19T06:46:09.226Z,41.00
2019-02-19T06:47:08.993Z,45.60
2019-02-19T06:48:09.196Z,41.40
2019-02-19T06:49:08.977Z,39.40
2019-02-19T06:50:09.182Z,42.30
2019-02-19T06:51:08.979Z,39.80
2019-02-19T06:52:08.984Z,41.30
2019-02-19T06:53:08.982Z,41.40
2019-02-19T06:54:08.968Z,41.80
2019-02-19T06:55:08.967Z,38.40
2019-02-19T06:56:09.477Z,37.10
2019-02-19T06:57:09.175Z,38.60
2019-02-19T06:58:08.972Z,42.90
2019-02-19T06:59:08.952Z,37.60
2019-02-19T07:00:08.965Z,41.00
2019-02-19T07:01:09.149Z,39.60
2019-02-19T07:02:08.943Z,41.60
2019-02-19T07:03:09.151Z,42.10
2019-02-19T07:04:08.943Z,36.50
2019-02-19T07:05:08.925Z,38.60
2019-02-19T07:06:09.137Z,38.80
2019-02-19T07:07:08.914Z,36.20
2019-02-19T07:08:08.916Z,36.70
2019-02-19T07:10:09.098Z,37.40
2019-02-19T07:11:08.913Z,38.70
2019-02-19T07:12:09.099Z,40.00
2019-02-19T07:13:08.907Z,35.90
2019-02-19T07:14:08.892Z,38.10
2019-02-19T07:15:08.885Z,36.60
2019-02-19T07:16:08.898Z,36.90
2019-02-19T07:17:15.458Z,37.20
2019-02-19T07:18:08.889Z,35.90
2019-02-19T07:19:08.871Z,37.10
2019-02-19T07:20:08.868Z,38.10
2019-02-19T07:21:08.857Z,36.20
2019-02-19T07:22:09.087Z,35.90
2019-02-19T07:23:08.864Z,34.10
2019-02-19T07:24:08.880Z,35.30
2019-02-19T07:25:08.853Z,34.60
2019-02-19T07:26:08.871Z,36.40
2019-02-19T07:27:08.862Z,35.60
2019-02-19T07:28:08.896Z,35.90
2019-02-19T07:29:08.841Z,41.10
2019-02-19T07:30:09.044Z,36.10
2019-02-19T07:31:08.822Z,35.20
2019-02-19T07:32:08.831Z,35.80
2019-02-19T07:33:09.018Z,37.60
2019-02-19T07:34:08.823Z,35.40
2019-02-19T07:35:08.826Z,37.70
2019-02-19T07:36:08.821Z,33.70
2019-02-19T07:37:08.802Z,33.30
2019-02-19T07:38:09.131Z,33.80
2019-02-19T07:39:08.797Z,33.50
2019-02-19T07:41:09.108Z,35.00
2019-02-19T07:42:08.779Z,35.50
2019-02-19T07:43:08.782Z,31.80
2019-02-19T07:44:08.778Z,37.90
2019-02-19T07:45:08.769Z,36.80
2019-02-19T07:46:08.795Z,35.30
2019-02-19T07:47:08.760Z,34.50
2019-02-19T07:48:08.759Z,33.30
2019-02-19T07:49:08.752Z,33.50
2019-02-19T07:50:08.755Z,34.00
2019-02-19T07:51:08.766Z,34.90
2019-02-19T07:52:08.744Z,32.80
2019-02-19T07:53:08.943Z,32.80
2019-02-19T07:54:08.744Z,37.20
2019-02-19T07:55:08.948Z,29.60
2019-02-19T07:56:08.949Z,35.50
2019-02-19T07:57:08.750Z,33.90
2019-02-19T07:58:08.722Z,37.10
2019-02-19T07:59:08.733Z,31.30
2019-02-19T08:00:08.715Z,31.90
2019-02-19T08:01:08.717Z,33.30
2019-02-19T08:02:08.705Z,32.60
2019-02-19T08:03:08.724Z,32.30
2019-02-19T08:04:08.706Z,33.70
2019-02-19T08:05:08.927Z,36.30
2019-02-19T08:06:09.019Z,36.90
2019-02-19T08:07:08.690Z,35.50
2019-02-19T08:08:08.907Z,33.00
2019-02-19T08:09:08.689Z,34.10
2019-02-19T08:10:08.695Z,34.20
2019-02-19T08:11:08.874Z,34.60
2019-02-19T08:12:08.896Z,33.40
2019-02-19T08:13:08.673Z,35.00
2019-02-19T08:14:08.670Z,35.00
2019-02-19T08:15:08.653Z,34.70
2019-02-19T08:16:08.849Z,32.60
2019-02-19T08:17:08.649Z,33.00
2019-02-19T08:18:08.859Z,32.70
2019-02-19T08:19:08.663Z,36.30
2019-02-19T08:20:15.325Z,33.80
2019-02-19T08:21:08.662Z,32.50
2019-02-19T08:22:08.829Z,34.10
2019-02-19T08:23:08.653Z,32.90
2019-02-19T08:24:08.635Z,31.10
2019-02-19T08:25:08.614Z,32.40
2019-02-19T08:26:08.632Z,33.00
2019-02-19T08:27:08.602Z,30.30
2019-02-19T08:28:08.607Z,32.30
2019-02-19T08:29:13.805Z,35.20
2019-02-19T08:30:08.655Z,32.50
2019-02-19T08:31:08.602Z,32.40
2019-02-19T08:32:08.606Z,33.00
2019-02-19T08:33:08.617Z,33.20
2019-02-19T08:34:08.593Z,32.10
2019-02-19T08:35:08.578Z,33.20
2019-02-19T08:36:08.572Z,32.20
2019-02-19T08:37:08.772Z,31.80
2019-02-19T08:38:08.583Z,32.50
2019-02-19T08:39:08.562Z,34.00
2019-02-19T08:40:08.758Z,32.20
2019-02-19T08:41:08.579Z,32.00
2019-02-19T08:42:08.568Z,31.10
2019-02-19T08:43:08.756Z,32.60
2019-02-19T08:44:08.591Z,34.40
2019-02-19T08:45:08.573Z,31.50
2019-02-19T08:46:08.534Z,30.10
2019-02-19T08:47:08.544Z,32.20
2019-02-19T08:49:08.534Z,31.30
2019-02-19T08:50:08.731Z,29.20
2019-02-19T08:51:08.527Z,29.50
2019-02-19T08:52:08.515Z,31.40
2019-02-19T08:53:08.717Z,29.70
2019-02-19T08:54:08.709Z,30.20
2019-02-19T08:55:08.511Z,28.40
2019-02-19T08:56:08.501Z,32.80
2019-02-19T08:57:08.492Z,32.30
2019-02-19T08:58:08.705Z,30.80
2019-02-19T08:59:08.511Z,28.60
2019-02-19T09:00:08.487Z,31.30
2019-02-19T09:01:08.885Z,33.00
2019-02-19T09:02:08.676Z,28.70
2019-02-19T09:03:08.483Z,27.40
2019-02-19T09:04:08.478Z,28.20
2019-02-19T09:05:08.474Z,28.80
2019-02-19T09:06:08.478Z,27.40
2019-02-19T09:07:08.478Z,28.70
2019-02-19T09:08:08.460Z,24.00
2019-02-19T09:09:08.653Z,27.80
2019-02-19T09:10:08.449Z,29.70
2019-02-19T09:11:08.444Z,33.50
2019-02-19T09:12:08.660Z,29.30
2019-02-19T09:13:08.638Z,28.10
2019-02-19T09:14:08.768Z,27.20
2019-02-19T09:15:08.631Z,26.80
2019-02-19T09:16:08.419Z,28.00
2019-02-19T09:18:08.422Z,29.20
2019-02-19T09:19:08.412Z,26.00
2019-02-19T09:20:08.428Z,25.90
2019-02-19T09:21:08.399Z,28.10
2019-02-19T09:22:08.427Z,27.30
2019-02-19T09:23:08.410Z,28.30
2019-02-19T09:24:09.752Z,25.90
2019-02-19T09:25:08.686Z,23.90
2019-02-19T09:26:08.587Z,24.40
2019-02-19T09:27:08.395Z,25.80
2019-02-19T09:28:08.593Z,27.40
2019-02-19T09:29:08.390Z,25.50
2019-02-19T09:30:08.380Z,23.50
2019-02-19T09:31:08.376Z,24.00
2019-02-19T09:32:08.377Z,25.30
2019-02-19T09:33:08.580Z,24.00
2019-02-19T09:34:08.354Z,24.70
2019-02-19T09:35:08.572Z,23.90
2019-02-19T09:36:08.347Z,20.40
2019-02-19T09:37:08.382Z,22.00
2019-02-19T09:38:08.379Z,20.60
2019-02-19T09:39:08.336Z,21.60
2019-02-19T09:40:08.367Z,22.20
2019-02-19T09:41:08.591Z,17.80
2019-02-19T09:42:08.322Z,20.20
2019-02-19T09:43:08.537Z,19.60
2019-02-19T09:44:08.525Z,21.30
2019-02-19T09:45:08.346Z,20.70
2019-02-19T09:46:08.317Z,21.30
2019-02-19T09:47:08.342Z,19.40
2019-02-19T09:48:08.525Z,18.40
2019-02-19T09:49:08.314Z,19.40
2019-02-19T09:50:08.512Z,17.70
2019-02-19T09:51:08.291Z,21.00
2019-02-19T09:52:08.510Z,19.10
2019-02-19T09:53:08.286Z,19.20
2019-02-19T09:54:08.287Z,22.00
2019-02-19T09:55:08.506Z,19.20
2019-02-19T09:56:08.287Z,18.50
2019-02-19T09:57:08.308Z,22.50
2019-02-19T09:58:08.476Z,17.80
2019-02-19T10:00:08.277Z,16.20
2019-02-19T10:01:08.287Z,16.10
2019-02-19T10:02:08.457Z,12.80
2019-02-19T10:03:08.266Z,16.80
2019-02-19T10:04:08.257Z,13.50
2019-02-19T10:05:08.452Z,14.90
2019-02-19T10:06:08.457Z,17.30
2019-02-19T10:07:08.437Z,15.20
2019-02-19T10:08:08.236Z,15.00
2019-02-19T10:09:08.449Z,15.90
2019-02-19T10:10:08.267Z,13.50
2019-02-19T10:11:08.232Z,14.40
2019-02-19T10:12:08.232Z,15.50
2019-02-19T10:13:08.429Z,13.80
2019-02-19T10:14:08.217Z,14.40
2019-02-19T10:15:08.219Z,14.20
2019-02-19T10:16:08.207Z,15.30
2019-02-19T10:17:08.203Z,13.60
2019-02-19T10:18:10.543Z,14.10
2019-02-19T10:19:08.196Z,11.40
2019-02-19T10:20:08.189Z,12.70
2019-02-19T10:21:08.192Z,17.70
2019-02-19T10:22:08.401Z,12.90
2019-02-19T10:23:08.184Z,14.20
2019-02-19T10:24:08.190Z,13.30
2019-02-19T10:25:08.375Z,12.20
2019-02-19T10:26:08.193Z,12.20
2019-02-19T10:27:08.169Z,13.40
2019-02-19T10:28:08.167Z,12.60
2019-02-19T10:29:08.168Z,11.90
2019-02-19T10:30:08.170Z,11.40
2019-02-19T10:31:08.161Z,10.00
2019-02-19T10:32:08.354Z,15.00
2019-02-19T10:33:08.149Z,15.10
2019-02-19T10:34:08.145Z,13.70
2019-02-19T10:35:08.146Z,13.90
2019-02-19T10:36:08.342Z,17.10
2019-02-19T10:37:08.146Z,14.90
2019-02-19T10:38:08.147Z,12.00
2019-02-19T10:39:08.359Z,12.70
2019-02-19T10:40:08.326Z,13.00
2019-02-19T10:41:08.130Z,13.20
2019-02-19T10:42:08.123Z,12.70
2019-02-19T10:43:08.116Z,10.30
2019-02-19T10:44:08.136Z,13.00
2019-02-19T10:45:08.102Z,11.60
2019-02-19T10:46:08.104Z,11.60
2019-02-19T10:47:08.115Z,12.90
2019-02-19T10:48:08.098Z,14.60
2019-02-19T10:49:08.097Z,12.10
2019-02-19T10:50:08.112Z,11.60
2019-02-19T10:51:08.102Z,12.60
2019-02-19T10:52:08.295Z,11.60
2019-02-19T10:53:08.108Z,13.70
2019-02-19T10:54:08.087Z,13.50
2019-02-19T10:55:08.082Z,10.20
2019-02-19T10:56:08.085Z,11.90
2019-02-19T10:57:08.071Z,11.70
2019-02-19T10:58:08.258Z,10.60
2019-02-19T10:59:08.066Z,12.30
2019-02-19T11:00:08.086Z,15.30
2019-02-19T11:01:08.050Z,10.40
2019-02-19T11:02:08.264Z,12.40
2019-02-19T11:03:08.045Z,12.10
2019-02-19T11:04:08.044Z,13.50
2019-02-19T11:05:08.064Z,12.70
2019-02-19T11:06:08.073Z,10.40
2019-02-19T11:07:08.034Z,14.00
2019-02-19T11:08:08.025Z,10.00
2019-02-19T11:09:08.052Z,10.40
2019-02-19T11:10:08.024Z,14.00
2019-02-19T11:11:08.024Z,12.30
2019-02-19T11:12:08.030Z,12.10
2019-02-19T11:13:08.010Z,12.40
2019-02-19T11:14:08.014Z,15.00
2019-02-19T11:15:08.015Z,13.80
2019-02-19T11:16:08.205Z,14.80
2019-02-19T11:17:08.000Z,13.80
2019-02-19T11:18:08.009Z,11.30
2019-02-19T11:19:08.316Z,13.60
2019-02-19T11:20:08.004Z,12.70
2019-02-19T11:21:08.208Z,11.20
2019-02-19T11:22:08.013Z,11.00
2019-02-19T11:23:08.008Z,14.40
2019-02-19T11:24:07.978Z,11.90
2019-02-19T11:25:07.982Z,13.40
2019-02-19T11:26:08.177Z,13.50
2019-02-19T11:27:07.964Z,10.80
2019-02-19T11:28:07.992Z,15.00
2019-02-19T11:29:08.161Z,10.30
2019-02-19T11:30:07.967Z,12.60
2019-02-19T11:31:07.963Z,11.60
2019-02-19T11:32:07.950Z,10.90
2019-02-19T11:33:08.178Z,10.80
2019-02-19T11:34:07.975Z,12.20
2019-02-19T11:35:07.959Z,10.60
2019-02-19T11:36:07.949Z,13.00
2019-02-19T11:37:07.940Z,9.50
2019-02-19T11:38:07.944Z,10.70
2019-02-19T11:39:07.946Z,10.60
2019-02-19T11:40:07.942Z,13.60
2019-02-19T11:41:07.969Z,8.60
2019-02-19T11:42:07.950Z,11.30
2019-02-19T11:43:07.921Z,10.70
2019-02-19T11:44:08.133Z,9.60
2019-02-19T11:45:08.118Z,9.70
2019-02-19T11:46:07.910Z,10.80
2019-02-19T11:47:07.910Z,10.80
2019-02-19T11:48:08.105Z,8.90
2019-02-19T11:49:07.902Z,9.00
2019-02-19T11:50:07.894Z,11.10
2019-02-19T11:51:08.095Z,10.70
2019-02-19T11:52:07.903Z,8.60
2019-02-19T11:53:07.889Z,10.50
2019-02-19T11:54:07.902Z,10.30
2019-02-19T11:55:07.899Z,9.60
2019-02-19T11:56:08.283Z,10.30
2019-02-19T11:57:07.887Z,10.60
2019-02-19T11:58:08.090Z,12.10
2019-02-19T11:59:08.752Z,12.20
2019-02-19T12:00:07.868Z,12.20
2019-02-19T12:01:08.085Z,11.50
2019-02-19T12:02:07.863Z,10.80
2019-02-19T12:03:08.080Z,9.40
2019-02-19T12:04:08.074Z,9.30
2019-02-19T12:05:07.866Z,10.90
2019-02-19T12:06:07.861Z,10.90
2019-02-19T12:07:07.844Z,10.40
2019-02-19T12:08:08.061Z,14.30
2019-02-19T12:09:07.849Z,13.70
2019-02-19T12:10:07.838Z,9.60
2019-02-19T12:11:07.860Z,8.80
2019-02-19T12:12:07.842Z,9.20
2019-02-19T12:13:08.030Z,8.70
2019-02-19T12:14:07.825Z,10.10
2019-02-19T12:15:07.837Z,9.00
2019-02-19T12:16:07.819Z,11.80
2019-02-19T12:17:07.824Z,11.60
2019-02-19T12:18:07.815Z,10.20
2019-02-19T12:19:07.836Z,9.50
2019-02-19T12:20:08.017Z,9.40
2019-02-19T12:21:08.023Z,8.60
2019-02-19T12:22:07.824Z,11.60
2019-02-19T12:23:07.820Z,11.60
2019-02-19T12:24:08.007Z,12.10
2019-02-19T12:26:08.020Z,9.00
2019-02-19T12:27:08.945Z,9.90
2019-02-19T12:28:07.997Z,11.60
2019-02-19T12:29:07.788Z,7.50
2019-02-19T12:30:07.991Z,8.80
2019-02-19T12:31:07.785Z,8.60
2019-02-19T12:32:07.780Z,9.00
2019-02-19T12:33:07.777Z,7.50
2019-02-19T12:34:08.004Z,8.60
2019-02-19T12:35:07.987Z,12.50
2019-02-19T12:36:08.175Z,13.40
2019-02-19T12:37:07.770Z,9.20
2019-02-19T12:38:07.984Z,8.30
2019-02-19T12:39:07.777Z,7.80
2019-02-19T12:40:07.778Z,7.50
2019-02-19T12:41:07.791Z,7.50
2019-02-19T12:42:07.754Z,9.70
2019-02-19T12:43:07.766Z,10.30
2019-02-19T12:44:07.969Z,8.20
2019-02-19T12:45:07.971Z,7.60
2019-02-19T12:47:07.753Z,8.70
2019-02-19T12:48:07.738Z,7.60
2019-02-19T12:49:07.736Z,7.90
2019-02-19T12:50:07.757Z,7.80
2019-02-19T12:51:08.084Z,9.60
2019-02-19T12:52:07.729Z,6.50
2019-02-19T12:53:07.750Z,8.10
2019-02-19T12:54:07.736Z,7.80
2019-02-19T12:55:07.714Z,7.70
2019-02-19T12:56:07.718Z,7.80
2019-02-19T12:57:07.923Z,5.80
2019-02-19T12:58:07.709Z,7.60
2019-02-19T12:59:07.724Z,8.90
2019-02-19T13:00:07.709Z,8.60
2019-02-19T13:01:07.917Z,9.00
2019-02-19T13:02:07.726Z,8.00
2019-02-19T13:03:07.902Z,6.20
2019-02-19T13:04:07.704Z,7.30
2019-02-19T13:05:07.704Z,7.40
2019-02-19T13:06:07.945Z,9.20
2019-02-19T13:07:07.699Z,5.90
2019-02-19T13:08:07.722Z,8.30
2019-02-19T13:09:07.902Z,10.40